createdAt,value
2022-10-05T00:00:55.883Z,98595.40
2022-10-05T00:03:39.315Z,98605.54
2022-10-05T00:06:10.350Z,98604.31
2022-10-05T00:08:38.523Z,98605.39
2022-10-05T00:11:13.778Z,98607.90
2022-10-05T00:13:42.257Z,98606.29
2022-10-05T00:16:19.970Z,98608.06
2022-10-05T00:18:51.602Z,98608.65
2022-10-05T00:21:29.007Z,98610.86
2022-10-05T00:23:58.225Z,98612.30
2022-10-05T00:26:33.317Z,98615.84
2022-10-05T00:29:07.171Z,98616.01
2022-10-05T00:31:36.618Z,98612.52
2022-10-05T00:34:06.324Z,98608.81
2022-10-05T00:36:35.041Z,98611.50
2022-10-05T00:39:04.280Z,98614.23
2022-10-05T00:41:54.219Z,98616.85
2022-10-05T00:44:41.175Z,98619.59
2022-10-05T00:47:28.692Z,98620.51
2022-10-05T00:49:59.948Z,98621.25
2022-10-05T00:52:40.058Z,98622.37
2022-10-05T00:55:24.727Z,98629.80
2022-10-05T00:57:53.353Z,98635.71
2022-10-05T01:00:26.035Z,98636.89
2022-10-05T01:03:09.518Z,98640.00
2022-10-05T01:06:13.336Z,98640.42
2022-10-05T01:09:04.343Z,98641.88
2022-10-05T01:11:53.534Z,98642.52
2022-10-05T01:14:38.476Z,98644.55
2022-10-05T01:17:20.578Z,98649.42
2022-10-05T01:20:24.089Z,98652.30
2022-10-05T01:23:11.907Z,98656.16
2022-10-05T01:25:56.564Z,98658.95
2022-10-05T01:28:32.891Z,98659.48
2022-10-05T01:31:25.843Z,98659.75
2022-10-05T01:34:22.131Z,98660.51
2022-10-05T01:37:01.233Z,98664.56
2022-10-05T01:39:43.830Z,98672.50
2022-10-05T01:42:39.626Z,98670.28
2022-10-05T01:45:32.188Z,98668.66
2022-10-05T01:48:20.890Z,98667.00
2022-10-05T01:51:13.032Z,98663.71
2022-10-05T01:53:56.355Z,98661.17
2022-10-05T01:56:59.585Z,98654.79
2022-10-05T01:59:46.058Z,98653.81
2022-10-05T02:02:20.968Z,98656.49
2022-10-05T02:05:04.117Z,98655.23
2022-10-05T02:07:40.474Z,98651.79
2022-10-05T02:10:40.504Z,98659.11
2022-10-05T02:13:37.042Z,98661.29
2022-10-05T02:16:14.152Z,98662.34
2022-10-05T02:18:50.487Z,98659.70
2022-10-05T02:21:19.996Z,98657.80
2022-10-05T02:23:53.194Z,98658.98
2022-10-05T02:26:22.483Z,98658.02
2022-10-05T02:28:58.643Z,98656.52
2022-10-05T02:31:40.572Z,98654.46
2022-10-05T02:34:28.584Z,98655.64
2022-10-05T02:37:28.424Z,98660.08
2022-10-05T02:40:08.660Z,98662.00
2022-10-05T02:42:52.501Z,98668.54
2022-10-05T02:45:56.641Z,98672.05
2022-10-05T02:48:40.159Z,98673.13
2022-10-05T02:51:14.725Z,98676.13
2022-10-05T02:53:48.684Z,98679.50
2022-10-05T02:56:49.448Z,98679.22
2022-10-05T02:59:29.884Z,98677.48
2022-10-05T03:02:21.341Z,98680.39
2022-10-05T03:05:20.096Z,98685.73
2022-10-05T03:07:51.335Z,98687.62
2022-10-05T03:10:40.200Z,98689.65
2022-10-05T03:13:26.500Z,98690.98
2022-10-05T03:16:03.625Z,98696.11
2022-10-05T03:19:07.244Z,98696.15
2022-10-05T03:21:56.358Z,98697.70
2022-10-05T03:24:41.338Z,98703.87
2022-10-05T03:27:34.892Z,98706.11
2022-10-05T03:30:19.308Z,98707.29
2022-10-05T03:33:26.023Z,98711.34
2022-10-05T03:36:20.610Z,98712.76
2022-10-05T03:39:08.553Z,98715.16
2022-10-05T03:42:05.291Z,98712.02
2022-10-05T03:44:55.084Z,98710.84
2022-10-05T03:47:41.483Z,98714.34
2022-10-05T03:50:18.979Z,98713.35
2022-10-05T03:53:14.484Z,98713.98
2022-10-05T03:56:12.801Z,98715.17
2022-10-05T03:58:59.189Z,98719.48
2022-10-05T04:01:39.132Z,98721.34
2022-10-05T04:04:13.843Z,98727.53
2022-10-05T04:06:49.761Z,98730.03
2022-10-05T04:09:29.964Z,98727.59
2022-10-05T04:12:23.727Z,98729.89
2022-10-05T04:15:02.458Z,98730.83
2022-10-05T04:17:44.469Z,98732.61
2022-10-05T04:20:25.521Z,98737.54
2022-10-05T04:23:03.845Z,98743.61
2022-10-05T04:25:42.176Z,98746.75
2022-10-05T04:28:20.495Z,98749.38
2022-10-05T04:30:53.351Z,98757.52
2022-10-05T04:33:22.433Z,98760.30
2022-10-05T04:36:09.459Z,98766.86
2022-10-05T04:38:51.456Z,98772.10
2022-10-05T04:41:45.113Z,98776.71
2022-10-05T04:44:28.865Z,98780.61
2022-10-05T04:47:18.754Z,98781.08
2022-10-05T04:50:07.187Z,98784.12
2022-10-05T04:53:16.642Z,98784.97
2022-10-05T04:55:54.238Z,98790.23
2022-10-05T04:59:10.328Z,98788.77
2022-10-05T05:01:41.106Z,98787.58
2022-10-05T05:04:33.515Z,98792.73
2022-10-05T05:07:09.872Z,98795.49
2022-10-05T05:09:57.509Z,98792.98
2022-10-05T05:12:44.470Z,98795.79
2022-10-05T05:15:15.566Z,98794.94
2022-10-05T05:18:01.863Z,98794.84
2022-10-05T05:20:59.628Z,98798.17
2022-10-05T05:24:22.411Z,98800.05
2022-10-05T05:27:11.762Z,98799.10
2022-10-05T05:30:01.542Z,98806.64
2022-10-05T05:32:44.659Z,98807.87
2022-10-05T05:35:34.235Z,98808.81
2022-10-05T05:38:11.220Z,98807.27
2022-10-05T05:41:07.353Z,98812.49
2022-10-05T05:43:53.557Z,98818.76
2022-10-05T05:46:58.313Z,98816.02
2022-10-05T05:49:27.989Z,98810.45
2022-10-05T05:52:14.907Z,98807.02
2022-10-05T05:54:54.463Z,98805.63
2022-10-05T05:57:37.469Z,98806.17
2022-10-05T06:00:06.396Z,98799.77
2022-10-05T06:02:55.940Z,98797.20
2022-10-05T06:05:32.508Z,98800.96
2022-10-05T06:08:16.038Z,98809.56
2022-10-05T06:10:58.142Z,98812.57
2022-10-05T06:13:40.461Z,98816.98
2022-10-05T06:16:30.520Z,98820.48
2022-10-05T06:19:23.143Z,98831.45
2022-10-05T06:22:07.622Z,98835.01
2022-10-05T06:24:47.475Z,98842.20
2022-10-05T06:27:37.367Z,98845.95
2022-10-05T06:30:17.828Z,98852.55
2022-10-05T06:33:23.066Z,98852.83
2022-10-05T06:36:18.785Z,98852.40
2022-10-05T06:39:14.414Z,98849.60
2022-10-05T06:41:48.925Z,98845.75
2022-10-05T06:44:22.896Z,98846.11
2022-10-05T06:47:38.154Z,98845.41
2022-10-05T06:50:42.754Z,98849.88
2022-10-05T06:53:46.683Z,98852.75
2022-10-05T06:56:31.833Z,98855.95
2022-10-05T06:59:25.402Z,98858.17
2022-10-05T07:02:25.553Z,98860.89
2022-10-05T07:05:27.689Z,98863.49
2022-10-05T07:08:12.042Z,98865.58
2022-10-05T07:11:15.322Z,98866.04
2022-10-05T07:13:43.323Z,98872.63
2022-10-05T07:16:47.286Z,98871.10
2022-10-05T07:19:36.458Z,98869.23
2022-10-05T07:22:19.717Z,98875.52
2022-10-05T07:24:58.343Z,98874.02
2022-10-05T07:27:33.994Z,98872.22
2022-10-05T07:30:02.168Z,98874.26
2022-10-05T07:32:55.637Z,98875.14
2022-10-05T07:35:52.584Z,98880.92
2022-10-05T07:38:32.157Z,98885.09
2022-10-05T07:41:06.738Z,98892.21
2022-10-05T07:44:02.490Z,98897.55
2022-10-05T07:46:56.218Z,98903.21
2022-10-05T07:49:44.692Z,98909.26
2022-10-05T07:52:21.274Z,98909.73
2022-10-05T07:55:10.737Z,98913.65
2022-10-05T07:57:47.608Z,98903.14
2022-10-05T08:00:21.641Z,98896.50
2022-10-05T08:03:05.415Z,98885.50
2022-10-05T08:05:36.234Z,98880.95
2022-10-05T08:08:20.449Z,98879.51
2022-10-05T08:11:12.834Z,98879.84
2022-10-05T08:13:55.304Z,98883.08
2022-10-05T08:16:28.421Z,98884.29
2022-10-05T08:19:19.927Z,98885.61
2022-10-05T08:22:06.309Z,98884.79
2022-10-05T08:24:46.369Z,98879.23
2022-10-05T08:27:27.148Z,98872.74
2022-10-05T08:30:06.595Z,98881.34
2022-10-05T08:33:03.743Z,98891.52
2022-10-05T08:35:35.280Z,98898.91
2022-10-05T08:38:13.352Z,98904.89
2022-10-05T08:41:16.375Z,98915.96
2022-10-05T08:44:11.794Z,98925.46
2022-10-05T08:47:18.995Z,98920.30
2022-10-05T08:50:21.162Z,98918.43
2022-10-05T08:53:12.577Z,98924.02
2022-10-05T08:56:04.718Z,98927.15
2022-10-05T08:58:59.509Z,98933.53
2022-10-05T09:01:30.610Z,98936.86
2022-10-05T09:04:13.580Z,98939.91
2022-10-05T09:07:17.931Z,98940.44
2022-10-05T09:10:16.660Z,98942.67
2022-10-05T09:13:23.458Z,98939.60
2022-10-05T09:16:06.994Z,98944.27
2022-10-05T09:18:53.443Z,98944.84
2022-10-05T09:21:43.747Z,98948.27
2022-10-05T09:24:14.932Z,98951.59
2022-10-05T09:27:14.553Z,98950.08
2022-10-05T09:30:06.586Z,98947.05
2022-10-05T09:33:05.076Z,98947.14
2022-10-05T09:36:06.309Z,98946.48
2022-10-05T09:39:22.313Z,98946.40
2022-10-05T09:42:02.667Z,98946.45
2022-10-05T09:44:43.422Z,98944.86
2022-10-05T09:47:45.339Z,98942.67
2022-10-05T09:50:19.106Z,98935.39
2022-10-05T09:53:08.491Z,98930.36
2022-10-05T09:56:10.808Z,98922.02
2022-10-05T09:58:41.490Z,98912.65
2022-10-05T10:01:36.279Z,98913.82
2022-10-05T10:04:31.713Z,98910.25
2022-10-05T10:07:36.608Z,98904.08
2022-10-05T10:10:35.428Z,98899.94
2022-10-05T10:13:37.227Z,98896.39
2022-10-05T10:16:31.073Z,98891.36
2022-10-05T10:18:59.955Z,98887.54
2022-10-05T10:21:33.489Z,98883.93
2022-10-05T10:24:38.724Z,98881.51
2022-10-05T10:27:10.048Z,98891.77
2022-10-05T10:29:43.647Z,98900.79
2022-10-05T10:32:23.911Z,98897.30
2022-10-05T10:34:57.813Z,98895.42
2022-10-05T10:37:39.507Z,98892.15
2022-10-05T10:40:35.635Z,98890.15
2022-10-05T10:43:25.780Z,98889.70
2022-10-05T10:46:22.257Z,98897.63
2022-10-05T10:49:14.199Z,98901.11
2022-10-05T10:52:02.540Z,98897.64
2022-10-05T10:54:55.502Z,98892.02
2022-10-05T10:57:54.826Z,98886.79
2022-10-05T11:00:48.789Z,98879.67
2022-10-05T11:03:35.498Z,98874.00
2022-10-05T11:06:22.818Z,98865.36
2022-10-05T11:09:00.910Z,98858.17
2022-10-05T11:12:02.383Z,98856.13
2022-10-05T11:14:55.122Z,98857.90
2022-10-05T11:18:00.596Z,98859.34
2022-10-05T11:21:06.143Z,98856.36
2022-10-05T11:23:55.396Z,98852.98
2022-10-05T11:26:58.455Z,98848.31
2022-10-05T11:30:03.928Z,98842.89
2022-10-05T11:33:06.615Z,98844.36
2022-10-05T11:35:35.001Z,98846.90
2022-10-05T11:38:18.348Z,98846.33
2022-10-05T11:40:52.339Z,98843.09
2022-10-05T11:43:38.866Z,98842.73
2022-10-05T11:46:38.711Z,98842.53
2022-10-05T11:49:28.716Z,98838.18
2022-10-05T11:52:17.098Z,98836.31
2022-10-05T11:55:16.186Z,98837.08
2022-10-05T11:57:53.660Z,98840.89
2022-10-05T12:00:59.912Z,98838.52
2022-10-05T12:03:48.693Z,98845.46
2022-10-05T12:06:26.314Z,98848.91
2022-10-05T12:09:25.515Z,98843.98
2022-10-05T12:12:22.565Z,98842.23
2022-10-05T12:15:17.635Z,98839.77
2022-10-05T12:18:08.474Z,98840.67
2022-10-05T12:20:45.932Z,98838.17
2022-10-05T12:23:40.214Z,98832.09
2022-10-05T12:26:16.823Z,98833.46
2022-10-05T12:28:50.087Z,98831.22
2022-10-05T12:31:21.411Z,98826.86
2022-10-05T12:34:08.280Z,98827.27
2022-10-05T12:37:03.634Z,98828.52
2022-10-05T12:39:38.820Z,98830.08
2022-10-05T12:42:19.672Z,98833.96
2022-10-05T12:45:09.782Z,98832.90
2022-10-05T12:47:53.895Z,98831.83
2022-10-05T12:50:28.673Z,98828.18
2022-10-05T12:53:15.093Z,98827.71
2022-10-05T12:55:50.716Z,98827.92
2022-10-05T12:58:33.571Z,98828.08
2022-10-05T13:01:10.128Z,98830.49
2022-10-05T13:03:45.027Z,98833.30
2022-10-05T13:06:20.278Z,98833.46
2022-10-05T13:08:48.142Z,98830.39
2022-10-05T13:11:31.586Z,98827.39
2022-10-05T13:14:11.315Z,98829.80
2022-10-05T13:17:02.014Z,98832.64
2022-10-05T13:19:54.897Z,98826.52
2022-10-05T13:22:31.550Z,98824.95
2022-10-05T13:25:27.568Z,98823.13
2022-10-05T13:28:16.814Z,98819.20
2022-10-05T13:30:57.815Z,98818.88
2022-10-05T13:33:36.948Z,98818.48
2022-10-05T13:36:15.025Z,98812.95
2022-10-05T13:38:48.912Z,98812.56
2022-10-05T13:41:25.937Z,98809.05
2022-10-05T13:44:12.236Z,98807.61
2022-10-05T13:46:49.422Z,98807.75
2022-10-05T13:49:38.809Z,98806.93
2022-10-05T13:52:26.014Z,98808.27
2022-10-05T13:55:12.423Z,98806.13
2022-10-05T13:58:14.102Z,98802.52
2022-10-05T14:01:00.289Z,98796.38
2022-10-05T14:03:39.000Z,98800.36
2022-10-05T14:06:27.855Z,98798.41
2022-10-05T14:08:57.874Z,98799.52
2022-10-05T14:11:36.796Z,98796.73
2022-10-05T14:14:10.922Z,98798.45
2022-10-05T14:17:13.394Z,98798.24
2022-10-05T14:19:43.310Z,98798.58
2022-10-05T14:22:22.497Z,98797.39
2022-10-05T14:25:02.633Z,98792.02
2022-10-05T14:27:48.088Z,98783.73
2022-10-05T14:30:16.156Z,98783.18
2022-10-05T14:33:13.086Z,98780.90
2022-10-05T14:35:44.156Z,98778.30
2022-10-05T14:38:30.038Z,98776.89
2022-10-05T14:41:17.562Z,98774.88
2022-10-05T14:44:19.420Z,98776.67
2022-10-05T14:46:55.529Z,98779.81
2022-10-05T14:49:29.934Z,98778.27
2022-10-05T14:51:58.764Z,98778.55
2022-10-05T14:54:53.987Z,98783.30
2022-10-05T14:57:41.023Z,98783.66
2022-10-05T15:00:16.720Z,98785.52
2022-10-05T15:03:18.842Z,98784.41
2022-10-05T15:05:54.036Z,98783.11
2022-10-05T15:09:09.161Z,98789.45
2022-10-05T15:11:58.005Z,98793.54
2022-10-05T15:14:34.885Z,98793.58
2022-10-05T15:17:27.090Z,98791.86
2022-10-05T15:20:07.701Z,98792.45
2022-10-05T15:23:05.351Z,98797.92
2022-10-05T15:25:40.689Z,98796.84
2022-10-05T15:28:17.334Z,98798.50
2022-10-05T15:31:20.336Z,98800.91
2022-10-05T15:34:17.005Z,98802.03
2022-10-05T15:37:19.036Z,98802.83
2022-10-05T15:39:55.047Z,98801.85
2022-10-05T15:42:35.910Z,98805.44
2022-10-05T15:45:54.791Z,98807.27
2022-10-05T15:48:39.517Z,98808.77
2022-10-05T15:51:17.052Z,98809.63
2022-10-05T15:54:40.916Z,98807.52
2022-10-05T15:57:44.130Z,98809.56
2022-10-05T16:00:16.102Z,98810.63
2022-10-05T16:03:11.271Z,98810.73
2022-10-05T16:06:12.511Z,98814.64
2022-10-05T16:09:09.046Z,98817.15
2022-10-05T16:11:49.409Z,98819.98
2022-10-05T16:14:34.715Z,98822.54
2022-10-05T16:17:35.731Z,98824.19
2022-10-05T16:20:26.024Z,98828.75
2022-10-05T16:23:21.447Z,98830.39
2022-10-05T16:26:04.858Z,98838.65
2022-10-05T16:28:39.465Z,98842.71
2022-10-05T16:31:21.080Z,98846.19
2022-10-05T16:33:58.573Z,98847.84
2022-10-05T16:36:41.122Z,98848.56
2022-10-05T16:39:31.371Z,98849.80
2022-10-05T16:42:24.641Z,98853.73
2022-10-05T16:45:17.115Z,98857.81
2022-10-05T16:47:50.227Z,98866.60
2022-10-05T16:50:50.296Z,98865.47
2022-10-05T16:53:27.790Z,98869.70
2022-10-05T16:56:02.397Z,98871.81
2022-10-05T16:58:47.885Z,98874.61
2022-10-05T17:01:21.848Z,98873.05
2022-10-05T17:03:49.870Z,98871.57
2022-10-05T17:06:29.721Z,98874.56
2022-10-05T17:09:19.604Z,98881.96
2022-10-05T17:12:10.205Z,98885.04
2022-10-05T17:14:50.353Z,98881.45
2022-10-05T17:17:27.305Z,98883.96
2022-10-05T17:20:29.495Z,98890.33
2022-10-05T17:23:02.255Z,98886.49
2022-10-05T17:25:45.007Z,98886.04
2022-10-05T17:28:18.613Z,98891.50
2022-10-05T17:30:49.306Z,98892.86
2022-10-05T17:33:23.457Z,98888.44
2022-10-05T17:35:58.262Z,98889.71
2022-10-05T17:38:35.470Z,98895.75
2022-10-05T17:41:04.845Z,98901.46
2022-10-05T17:43:34.105Z,98900.39
2022-10-05T17:46:06.679Z,98902.31
2022-10-05T17:49:16.709Z,98901.77
2022-10-05T17:52:05.962Z,98907.38
2022-10-05T17:55:08.802Z,98908.11
2022-10-05T17:57:37.803Z,98909.33
2022-10-05T18:00:29.587Z,98911.85
2022-10-05T18:02:58.332Z,98910.87
2022-10-05T18:05:28.696Z,98911.34
2022-10-05T18:08:12.844Z,98907.41
2022-10-05T18:11:07.022Z,98904.52
2022-10-05T18:13:42.100Z,98902.21
2022-10-05T18:16:10.768Z,98902.59
2022-10-05T18:18:45.551Z,98901.24
2022-10-05T18:21:20.820Z,98899.30
2022-10-05T18:23:51.858Z,98895.06
2022-10-05T18:26:43.915Z,98889.86
2022-10-05T18:29:43.640Z,98885.38
2022-10-05T18:33:05.025Z,98883.16
2022-10-05T18:36:02.517Z,98881.34
2022-10-05T18:38:56.595Z,98882.34
2022-10-05T18:41:33.282Z,98882.92
2022-10-05T18:44:12.485Z,98885.58
2022-10-05T18:47:04.357Z,98890.84
2022-10-05T18:50:00.854Z,98891.90
2022-10-05T18:52:53.830Z,98892.49
2022-10-05T18:55:36.433Z,98898.40
2022-10-05T18:58:38.300Z,98899.19
2022-10-05T19:01:57.254Z,98894.95
2022-10-05T19:04:45.695Z,98895.87
2022-10-05T19:07:41.959Z,98897.79
2022-10-05T19:10:31.814Z,98900.20
2022-10-05T19:13:05.826Z,98903.65
2022-10-05T19:15:40.144Z,98905.38
2022-10-05T19:18:41.845Z,98911.42
2022-10-05T19:21:33.321Z,98914.01
2022-10-05T19:24:23.926Z,98918.96
2022-10-05T19:27:07.355Z,98919.66
2022-10-05T19:30:25.369Z,98918.80
2022-10-05T19:33:33.832Z,98917.30
2022-10-05T19:36:12.153Z,98916.98
2022-10-05T19:38:56.140Z,98918.41
2022-10-05T19:41:46.586Z,98919.22
2022-10-05T19:44:38.593Z,98922.13
2022-10-05T19:47:22.453Z,98917.52
2022-10-05T19:49:55.469Z,98912.42
2022-10-05T19:52:49.695Z,98911.71
2022-10-05T19:55:22.593Z,98905.48
2022-10-05T19:57:53.201Z,98900.36
2022-10-05T20:00:30.727Z,98898.30
2022-10-05T20:03:19.668Z,98897.52
2022-10-05T20:05:48.400Z,98896.81
2022-10-05T20:08:20.074Z,98896.26
2022-10-05T20:11:10.016Z,98895.87
2022-10-05T20:13:41.878Z,98896.92
2022-10-05T20:16:38.527Z,98897.27
2022-10-05T20:19:43.495Z,98901.77
2022-10-05T20:22:25.036Z,98908.21
2022-10-05T20:25:01.213Z,98905.41
2022-10-05T20:27:43.896Z,98901.67
2022-10-05T20:30:20.966Z,98900.80
2022-10-05T20:33:04.538Z,98903.30
2022-10-05T20:35:33.334Z,98904.10
2022-10-05T20:38:22.848Z,98904.71
2022-10-05T20:40:51.289Z,98905.34
2022-10-05T20:43:19.256Z,98911.29
2022-10-05T20:45:47.429Z,98915.17
2022-10-05T20:48:16.829Z,98909.14
2022-10-05T20:50:45.010Z,98905.29
2022-10-05T20:53:13.382Z,98908.75
2022-10-05T20:55:41.365Z,98910.00
2022-10-05T20:58:11.260Z,98904.91
2022-10-05T21:00:57.833Z,98903.79
2022-10-05T21:03:25.787Z,98904.98
2022-10-05T21:05:53.811Z,98904.55
2022-10-05T21:08:21.654Z,98907.09
2022-10-05T21:10:50.550Z,98907.52
2022-10-05T21:13:18.530Z,98905.57
2022-10-05T21:15:46.305Z,98905.08
2022-10-05T21:18:15.912Z,98903.77
2022-10-05T21:20:50.643Z,98902.85
2022-10-05T21:23:18.713Z,98901.50
2022-10-05T21:25:48.622Z,98900.66
2022-10-05T21:28:16.589Z,98894.27
2022-10-05T21:30:44.615Z,98888.43
2022-10-05T21:33:12.526Z,98883.80
2022-10-05T21:35:40.408Z,98881.41
2022-10-05T21:38:08.471Z,98876.94
2022-10-05T21:40:36.439Z,98873.09
2022-10-05T21:43:04.983Z,98877.83
2022-10-05T21:45:32.912Z,98882.10
2022-10-05T21:48:01.202Z,98884.94
2022-10-05T21:50:29.230Z,98882.60
2022-10-05T21:52:57.209Z,98881.13
2022-10-05T21:55:25.274Z,98879.64
2022-10-05T21:57:56.937Z,98878.34
2022-10-05T22:00:25.017Z,98878.63
2022-10-05T22:02:53.091Z,98877.65
2022-10-05T22:05:21.092Z,98877.30
2022-10-05T22:07:49.116Z,98879.48
2022-10-05T22:10:17.318Z,98876.51
2022-10-05T22:12:47.415Z,98873.77
2022-10-05T22:15:15.692Z,98873.39
2022-10-05T22:17:46.321Z,98872.30
2022-10-05T22:20:15.616Z,98874.41
2022-10-05T22:22:43.852Z,98878.31
2022-10-05T22:25:11.869Z,98879.36
2022-10-05T22:27:40.337Z,98880.16
2022-10-05T22:30:08.928Z,98879.91
2022-10-05T22:32:36.902Z,98882.54
2022-10-05T22:35:09.197Z,98880.58
2022-10-05T22:37:39.703Z,98879.48
2022-10-05T22:40:08.693Z,98876.60
2022-10-05T22:42:36.624Z,98872.91
2022-10-05T22:45:08.789Z,98871.88
2022-10-05T22:47:36.902Z,98871.52
2022-10-05T22:50:05.878Z,98869.29
2022-10-05T22:52:33.865Z,98863.84
2022-10-05T22:55:02.245Z,98861.79
2022-10-05T22:57:40.734Z,98859.89
2022-10-05T23:00:10.630Z,98857.66
2022-10-05T23:02:40.340Z,98857.74
2022-10-05T23:05:10.685Z,98857.35
2022-10-05T23:07:40.518Z,98854.33
2022-10-05T23:10:11.958Z,98857.53
2022-10-05T23:12:40.471Z,98858.85
2022-10-05T23:15:09.671Z,98857.70
2022-10-05T23:17:39.266Z,98860.53
2022-10-05T23:20:08.186Z,98857.98
2022-10-05T23:22:39.800Z,98855.76
2022-10-05T23:25:08.559Z,98855.60
2022-10-05T23:27:41.153Z,98851.79
2022-10-05T23:30:10.986Z,98852.87
2022-10-05T23:32:40.479Z,98855.09
2022-10-05T23:35:10.358Z,98859.05
2022-10-05T23:37:40.108Z,98856.29
2022-10-05T23:40:12.158Z,98855.59
2022-10-05T23:42:41.330Z,98854.42
2022-10-05T23:45:11.025Z,98858.02
2022-10-05T23:47:40.329Z,98859.92
2022-10-05T23:50:09.660Z,98860.45
2022-10-05T23:52:38.062Z,98860.75
2022-10-05T23:55:07.118Z,98862.25
2022-10-05T23:57:34.978Z,98861.84
